Time;durP1;ratioP1;P1;durP2;ratioP2;P2;SDS_P1;SDS_P2;PMS_P1;PMS_P2;Temp;Humidity;BMP_temperature;BMP_pressure;BME280_temperature;BME280_humidity;BME280_pressure;Samples;Min_cycle;Max_cycle;Signal;HPM_P1;HPM_P2
2021/03/26 00:00:48;;;;;;;15.05;8.70;;;;;;;1.03;79.28;100878.00;1706209;84;20904;-44
2021/03/26 00:03:19;;;;;;;15.98;10.28;;;;;;;0.99;79.34;100879.59;1706290;84;21377;-42
2021/03/26 00:05:50;;;;;;;12.45;9.08;;;;;;;0.95;79.43;100878.21;1706064;84;20912;-43
2021/03/26 00:10:50;;;;;;;15.28;9.25;;;;;;;0.93;79.52;100876.03;1776980;79;22717;-43
2021/03/26 00:13:18;;;;;;;14.68;9.83;;;;;;;0.84;79.57;100875.36;1749491;82;20936;-42
2021/03/26 00:15:45;;;;;;;16.07;9.95;;;;;;;0.79;79.58;100875.22;1749478;81;21401;-42
2021/03/26 00:18:13;;;;;;;13.45;9.60;;;;;;;0.75;79.66;100872.13;1749382;82;20971;-43
2021/03/26 00:20:41;;;;;;;13.60;9.08;;;;;;;0.70;79.64;100872.42;1749532;82;21097;-42
2021/03/26 00:23:09;;;;;;;18.25;10.08;;;;;;;0.66;79.71;100871.88;1749550;82;20947;-42
2021/03/26 00:25:39;;;;;;;16.50;10.58;;;;;;;0.60;79.77;100871.28;1749415;81;20944;-43
2021/03/26 00:28:06;;;;;;;17.15;9.93;;;;;;;0.54;79.86;100877.05;1749446;82;21273;-42
2021/03/26 00:30:35;;;;;;;16.57;9.78;;;;;;;0.47;79.87;100875.16;1749383;81;20999;-43
2021/03/26 00:33:05;;;;;;;14.25;9.75;;;;;;;0.39;79.97;100873.64;1749503;82;21038;-42
2021/03/26 00:35:33;;;;;;;15.28;9.60;;;;;;;0.34;80.13;100876.86;1749360;81;21050;-42
2021/03/26 00:38:03;;;;;;;12.20;9.28;;;;;;;0.25;80.22;100879.98;1749398;81;21034;-43
2021/03/26 00:40:31;;;;;;;12.25;9.00;;;;;;;0.14;80.30;100882.23;1749440;82;21381;-43
2021/03/26 00:42:58;;;;;;;15.63;9.98;;;;;;;0.05;80.49;100881.92;1743153;82;20967;-42
2021/03/26 00:45:33;;;;;;;18.35;10.55;;;;;;;-0.04;80.52;100883.77;1719623;83;21010;-43
2021/03/26 00:48:02;;;;;;;14.18;9.35;;;;;;;-0.14;80.71;100887.69;1719813;83;21586;-43
2021/03/26 00:50:45;;;;;;;13.58;8.60;;;;;;;-0.24;80.83;100887.83;1719576;83;21002;-45
2021/03/26 00:53:18;;;;;;;19.40;9.80;;;;;;;-0.32;81.17;100889.23;1719307;82;21377;-44
2021/03/26 00:55:48;;;;;;;13.80;9.33;;;;;;;-0.42;81.24;100885.94;1719555;83;21066;-42
2021/03/26 00:58:17;;;;;;;14.28;9.18;;;;;;;-0.50;81.45;100887.83;1719625;83;21082;-43
2021/03/26 01:00:46;;;;;;;19.37;9.50;;;;;;;-0.55;81.77;100884.66;1719499;83;20967;-45
2021/03/26 01:03:14;;;;;;;18.48;9.93;;;;;;;-0.61;81.74;100887.84;1689845;83;21567;-44
2021/03/26 01:05:50;;;;;;;19.92;10.48;;;;;;;-0.67;81.94;100888.92;1719598;83;21214;-42
2021/03/26 01:08:19;;;;;;;18.60;10.35;;;;;;;-0.74;81.98;100896.73;1719477;83;21023;-42
2021/03/26 01:10:54;;;;;;;17.35;10.25;;;;;;;-0.80;82.08;100901.61;1720117;83;21358;-42
2021/03/26 01:13:22;;;;;;;16.40;10.43;;;;;;;-0.89;82.21;100900.45;1720094;82;20916;-42
2021/03/26 01:15:51;;;;;;;18.77;10.45;;;;;;;-0.94;82.75;100894.77;1720322;83;21034;-45
2021/03/26 01:18:34;;;;;;;18.07;10.63;;;;;;;-0.96;82.77;100897.66;1720420;83;21360;-43
2021/03/26 01:21:03;;;;;;;17.62;9.50;;;;;;;-1.00;82.77;100897.95;1719956;82;20998;-42
2021/03/26 01:23:30;;;;;;;17.42;10.95;;;;;;;-1.07;82.99;100897.27;1719865;83;21058;-42
2021/03/26 01:26:00;;;;;;;18.73;11.28;;;;;;;-1.13;83.05;100902.14;1719734;83;21030;-43
2021/03/26 01:28:30;;;;;;;20.15;11.68;;;;;;;-1.21;83.25;100900.16;1708611;83;20939;-43
2021/03/26 01:31:16;;;;;;;13.75;9.78;;;;;;;-1.26;83.39;100908.02;1719968;83;21433;-42
2021/03/26 01:33:45;;;;;;;16.20;10.30;;;;;;;-1.33;83.41;100900.99;1719802;83;21023;-43
2021/03/26 01:36:13;;;;;;;20.52;11.40;;;;;;;-1.38;83.59;100906.31;1719767;82;21058;-43
2021/03/26 01:38:41;;;;;;;15.40;10.40;;;;;;;-1.45;83.67;100908.59;1719803;83;20943;-40
2021/03/26 01:41:16;;;;;;;16.73;9.95;;;;;;;-1.46;83.76;100911.09;1719816;83;21303;-43
2021/03/26 01:43:45;;;;;;;21.45;11.08;;;;;;;-1.51;84.11;100910.91;1719703;82;21634;-42
2021/03/26 01:46:14;;;;;;;17.15;10.60;;;;;;;-1.59;84.14;100908.48;1719713;83;20963;-43
2021/03/26 01:48:46;;;;;;;14.43;10.72;;;;;;;-1.64;84.22;100912.11;1719874;82;21611;-43
2021/03/26 01:51:18;;;;;;;14.63;10.03;;;;;;;-1.66;84.36;100914.11;1719844;82;21555;-43
2021/03/26 01:53:47;;;;;;;18.90;10.82;;;;;;;-1.72;84.47;100912.61;1719749;83;20907;-43
2021/03/26 01:56:15;;;;;;;21.33;11.75;;;;;;;-1.83;84.45;100913.06;1719816;83;21380;-43
2021/03/26 01:58:44;;;;;;;19.52;11.78;;;;;;;-1.88;84.71;100915.83;1691970;83;21050;-43
2021/03/26 02:01:20;;;;;;;19.02;10.80;;;;;;;-1.91;84.81;100920.38;1719716;83;21027;-43
2021/03/26 02:03:52;;;;;;;19.10;10.82;;;;;;;-1.96;84.78;100914.64;1693183;83;21094;-41
2021/03/26 02:06:24;;;;;;;17.65;10.28;;;;;;;-2.04;84.87;100920.66;1719803;82;21007;-42
2021/03/26 02:09:03;;;;;;;19.40;10.68;;;;;;;-2.07;85.21;100927.77;1719757;83;21390;-42
2021/03/26 02:11:39;;;;;;;16.50;10.98;;;;;;;-2.06;85.30;100932.05;1713518;83;20967;-42
2021/03/26 02:14:18;;;;;;;53.05;12.55;;;;;;;-2.11;85.32;100926.30;1719711;82;21026;-42
2021/03/26 02:16:49;;;;;;;311.32;21.40;;;;;;;-2.17;85.34;100929.45;1719693;83;21101;-42
2021/03/26 02:19:58;;;;;;;434.63;24.77;;;;;;;-2.19;85.54;100938.67;1719686;83;21059;-43
2021/03/26 02:22:29;;;;;;;22.62;10.85;;;;;;;-2.20;85.75;100941.63;1719838;83;21582;-42
2021/03/26 02:24:58;;;;;;;43.35;12.78;;;;;;;-2.23;85.80;100936.42;1719719;83;21073;-42
2021/03/26 02:27:30;;;;;;;56.92;12.30;;;;;;;-2.28;85.93;100936.61;1719810;83;21007;-43
2021/03/26 02:30:00;;;;;;;26.97;10.85;;;;;;;-2.33;86.01;100941.90;1719615;83;21034;-43
2021/03/26 02:32:38;;;;;;;27.85;9.75;;;;;;;-2.39;86.15;100946.34;1717268;83;21014;-43
2021/03/26 02:35:27;;;;;;;31.77;10.98;;;;;;;-2.41;86.26;100941.98;1718378;83;21230;-42
2021/03/26 02:38:11;;;;;;;25.60;11.48;;;;;;;-2.42;86.40;100942.37;1713216;82;21602;-42
2021/03/26 02:40:51;;;;;;;22.13;11.50;;;;;;;-2.49;86.27;100944.19;1719835;83;20955;-43
2021/03/26 02:43:44;;;;;;;21.40;11.12;;;;;;;-2.57;86.40;100939.20;1719742;82;21122;-42
2021/03/26 02:46:35;;;;;;;19.35;11.22;;;;;;;-2.64;86.51;100944.41;1719444;83;21105;-42
2021/03/26 02:49:12;;;;;;;17.27;10.90;;;;;;;-2.68;86.72;100939.59;1719718;82;21382;-43
2021/03/26 02:51:54;;;;;;;26.57;11.65;;;;;;;-2.72;86.98;100940.68;1719677;82;20978;-42
2021/03/26 02:54:42;;;;;;;25.88;11.75;;;;;;;-2.77;87.13;100936.66;1719781;83;21030;-41
2021/03/26 02:57:19;;;;;;;35.48;11.65;;;;;;;-2.79;87.20;100940.80;1719777;83;21010;-41
2021/03/26 03:00:00;;;;;;;34.30;12.30;;;;;;;-2.85;87.20;100941.39;1719737;83;20959;-41
2021/03/26 03:02:29;;;;;;;40.60;12.53;;;;;;;-2.87;87.40;100940.88;1719826;83;22265;-40
2021/03/26 03:05:21;;;;;;;58.80;13.45;;;;;;;-2.87;87.47;100949.75;1718952;83;21007;-41
2021/03/26 03:07:57;;;;;;;73.15;14.80;;;;;;;-2.94;87.33;100952.40;1719734;83;20939;-41
2021/03/26 03:10:50;;;;;;;84.47;15.78;;;;;;;-3.02;87.48;100955.00;1719302;83;20955;-41
2021/03/26 03:13:42;;;;;;;109.12;16.82;;;;;;;-3.09;87.62;100956.38;1694870;83;21006;-42
2021/03/26 03:16:31;;;;;;;86.35;14.60;;;;;;;-3.14;87.85;100960.38;1719770;83;21335;-42
2021/03/26 03:19:32;;;;;;;61.23;14.30;;;;;;;-3.19;87.97;100964.80;1719703;83;20967;-41
2021/03/26 03:22:30;;;;;;;86.90;15.18;;;;;;;-3.23;88.22;100960.40;1707123;83;20955;-42
2021/03/26 03:25:05;;;;;;;49.33;13.50;;;;;;;-3.24;88.50;100959.08;1719731;83;20994;-41
2021/03/26 03:27:56;;;;;;;38.30;13.43;;;;;;;-3.25;88.54;100959.47;1693408;83;21685;-42
2021/03/26 03:30:42;;;;;;;140.15;17.30;;;;;;;-3.28;88.69;100959.33;1719681;83;21381;-41
2021/03/26 03:33:41;;;;;;;143.28;18.57;;;;;;;-3.30;88.75;100964.72;1719642;83;21022;-42
2021/03/26 03:36:14;;;;;;;86.17;14.50;;;;;;;-3.33;88.89;100972.18;1719719;83;20967;-41
2021/03/26 03:39:02;;;;;;;69.92;15.90;;;;;;;-3.36;89.11;100972.05;1693388;83;21634;-41
2021/03/26 03:41:43;;;;;;;65.95;16.15;;;;;;;-3.35;89.19;100969.98;1704135;82;20962;-43
2021/03/26 03:44:55;;;;;;;47.00;14.55;;;;;;;-3.39;89.27;100970.64;1719683;82;21374;-41
2021/03/26 03:47:41;;;;;;;34.18;14.65;;;;;;;-3.41;89.40;100973.47;1719676;83;21057;-42
2021/03/26 03:50:41;;;;;;;60.58;13.45;;;;;;;-3.41;89.69;100974.73;1869355;75;22640;-41
2021/03/26 03:53:29;;;;;;;58.28;14.90;;;;;;;-3.41;89.94;100973.47;1826507;77;20971;-41
2021/03/26 03:56:30;;;;;;;44.60;13.50;;;;;;;-3.38;89.99;100974.91;1794236;78;21144;-43
2021/03/26 03:59:06;;;;;;;29.15;13.15;;;;;;;-3.33;90.10;100978.52;1757545;80;21074;-43
2021/03/26 04:01:50;;;;;;;26.75;12.35;;;;;;;-3.33;90.07;100979.78;1805990;77;20970;-42
2021/03/26 04:04:27;;;;;;;43.42;13.22;;;;;;;-3.28;90.29;100981.23;1756058;80;21121;-42
2021/03/26 04:07:02;;;;;;;40.08;12.60;;;;;;;-3.20;90.39;100983.75;1807962;77;20903;-43
2021/03/26 04:09:37;;;;;;;24.55;12.55;;;;;;;-3.13;90.47;100991.23;1821167;77;21409;-42
2021/03/26 04:12:11;;;;;;;27.82;11.53;;;;;;;-3.04;90.58;100987.43;1779022;79;21121;-41
2021/03/26 04:14:55;;;;;;;31.68;11.38;;;;;;;-2.95;90.55;100986.98;1807701;77;21057;-43
2021/03/26 04:17:34;;;;;;;24.00;12.03;;;;;;;-2.84;90.57;100984.09;1826962;77;21006;-42
2021/03/26 04:20:11;;;;;;;38.45;12.50;;;;;;;-2.75;90.62;100985.37;1780712;79;21107;-41
2021/03/26 04:22:46;;;;;;;33.13;12.45;;;;;;;-2.64;90.58;100988.77;1729048;80;21338;-42
2021/03/26 04:25:32;;;;;;;28.23;10.80;;;;;;;-2.54;90.55;100984.97;1836441;77;21042;-44
2021/03/26 04:28:32;;;;;;;130.97;17.67;;;;;;;-2.42;90.52;100994.36;1767947;80;21170;-43
2021/03/26 04:31:29;;;;;;;118.65;16.52;;;;;;;-2.31;90.52;100995.70;1754049;80;21111;-42
2021/03/26 04:33:58;;;;;;;126.22;15.15;;;;;;;-2.11;90.62;101003.69;1782517;79;21079;-42
2021/03/26 04:36:39;;;;;;;158.40;17.80;;;;;;;-1.95;90.58;101003.92;1833600;77;21411;-42
2021/03/26 04:39:17;;;;;;;193.15;21.12;;;;;;;-1.79;90.58;101003.77;1822199;77;21006;-42
2021/03/26 04:42:07;;;;;;;118.08;15.85;;;;;;;-1.54;90.64;101004.75;1841547;77;21440;-41
2021/03/26 04:44:42;;;;;;;137.45;17.45;;;;;;;-1.28;90.50;101003.64;1751658;79;21596;-42
2021/03/26 04:47:32;;;;;;;66.00;12.78;;;;;;;-1.05;90.07;101013.83;1748219;81;20962;-42
2021/03/26 04:50:17;;;;;;;99.65;14.60;;;;;;;-0.85;89.76;101023.89;1813854;78;21127;-42
2021/03/26 04:52:52;;;;;;;116.35;13.30;;;;;;;-0.60;89.39;101022.71;1803399;78;22501;-42
2021/03/26 04:55:29;;;;;;;82.85;13.43;;;;;;;-0.41;88.67;101023.35;1810551;78;21011;-42
2021/03/26 04:58:12;;;;;;;47.62;10.95;;;;;;;-0.29;88.27;101024.19;1811223;78;21124;-42
2021/03/26 05:01:14;;;;;;;45.35;12.00;;;;;;;-0.10;87.82;101027.39;1847034;76;23332;-41
2021/03/26 05:03:48;;;;;;;34.38;10.53;;;;;;;-0.07;87.00;101027.48;1817516;79;21196;-42
2021/03/26 05:06:22;;;;;;;30.23;10.72;;;;;;;0.05;86.93;101027.05;1817829;78;21399;-42
2021/03/26 05:09:08;;;;;;;14.93;9.55;;;;;;;0.14;86.42;101018.45;1787400;79;21037;-42
2021/03/26 05:11:59;;;;;;;16.73;9.30;;;;;;;0.30;86.12;101023.65;1817782;78;20990;-40
2021/03/26 05:14:41;;;;;;;18.25;9.08;;;;;;;0.43;85.36;101026.19;1784957;79;21045;-42
2021/03/26 05:17:27;;;;;;;18.05;9.20;;;;;;;0.51;84.00;101027.28;1817858;79;20935;-42
2021/03/26 05:20:34;;;;;;;14.70;9.43;;;;;;;0.56;83.24;101030.84;1817861;79;21354;-42
2021/03/26 05:23:34;;;;;;;11.60;8.23;;;;;;;0.73;82.95;101026.70;1817731;79;20938;-42
2021/03/26 05:26:10;;;;;;;17.85;9.10;;;;;;;0.93;82.21;101025.17;1803035;77;20970;-42
2021/03/26 05:28:44;;;;;;;15.95;9.03;;;;;;;1.09;81.43;101028.62;1815396;79;20986;-42
2021/03/26 05:31:52;;;;;;;13.85;9.65;;;;;;;1.22;80.02;101023.89;1817193;79;20931;-41
2021/03/26 05:34:38;;;;;;;12.35;8.08;;;;;;;1.39;78.54;101016.33;1884673;76;22046;-42
2021/03/26 05:37:38;;;;;;;15.20;8.68;;;;;;;1.47;77.64;101028.42;1852754;76;21657;-42
2021/03/26 05:40:27;;;;;;;;;;;;;;;1.59;76.40;101027.47;1855410;77;21311;-42
2021/03/26 05:43:38;;;;;;;16.87;9.08;;;;;;;1.69;73.95;101020.55;1838609;77;20200;-43
2021/03/26 05:46:55;;;;;;;13.68;8.85;;;;;;;1.78;73.20;101023.76;1818202;78;21010;-42
2021/03/26 05:49:52;;;;;;;12.60;8.60;;;;;;;1.92;72.25;101028.34;1805347;78;21013;-41
2021/03/26 05:52:50;;;;;;;13.45;8.23;;;;;;;2.05;71.05;101029.14;1819194;78;20911;-42
2021/03/26 05:55:39;;;;;;;13.20;8.43;;;;;;;2.16;69.92;101029.41;1819239;78;21353;-43
2021/03/26 05:58:40;;;;;;;12.53;8.15;;;;;;;2.22;69.59;101033.79;1819130;78;20967;-42
2021/03/26 06:01:31;;;;;;;13.62;8.18;;;;;;;2.34;69.23;101039.63;1819227;78;20922;-42
2021/03/26 06:05:06;;;;;;;14.00;8.90;;;;;;;2.56;67.06;101045.71;1819446;78;21010;-43
2021/03/26 06:08:23;;;;;;;15.28;8.55;;;;;;;2.56;67.06;101045.71;1727271;83;20974;-42
2021/03/26 06:11:09;;;;;;;12.10;7.90;;;;;;;2.71;67.14;101052.88;1847657;76;22743;-41
2021/03/26 06:14:22;;;;;;;14.83;8.55;;;;;;;2.75;66.73;101058.05;1813072;79;20923;-42
2021/03/26 06:17:49;;;;;;;18.55;8.03;;;;;;;2.82;65.80;101054.41;1817851;79;21349;-43
2021/03/26 06:20:27;;;;;;;15.28;7.97;;;;;;;2.95;66.05;101058.54;1763266;79;20915;-42
2021/03/26 06:23:08;;;;;;;11.33;7.20;;;;;;;3.02;65.45;101055.28;1815295;79;20919;-41
2021/03/26 06:26:15;;;;;;;13.22;7.75;;;;;;;3.12;65.36;101055.07;1816382;77;20938;-42
2021/03/26 06:29:14;;;;;;;11.28;7.30;;;;;;;3.24;63.35;101053.20;1817944;79;20982;-43
2021/03/26 06:32:05;;;;;;;12.82;7.12;;;;;;;3.28;63.50;101060.10;1817809;77;21434;-42
2021/03/26 06:35:13;;;;;;;10.15;6.80;;;;;;;3.35;63.76;101059.82;1759721;79;20919;-43
2021/03/26 06:37:52;;;;;;;10.50;7.55;;;;;;;3.46;63.47;101059.62;1817748;78;21013;-42
2021/03/26 06:40:53;;;;;;;15.32;7.03;;;;;;;3.57;62.55;101059.83;1813914;79;20887;-42
2021/03/26 06:43:41;;;;;;;9.20;5.83;;;;;;;3.67;62.18;101059.61;1807451;79;20962;-41
2021/03/26 06:46:54;;;;;;;9.83;6.60;;;;;;;3.71;61.57;101057.14;1785576;80;21201;-44
2021/03/26 06:49:34;;;;;;;11.45;7.30;;;;;;;3.77;61.73;101060.66;1785456;80;21045;-43
2021/03/26 06:52:25;;;;;;;12.15;6.70;;;;;;;3.86;61.02;101062.97;1751858;80;20938;-43
2021/03/26 06:55:33;;;;;;;10.32;5.90;;;;;;;3.95;61.67;101055.89;1785537;80;21014;-43
2021/03/26 06:58:28;;;;;;;13.05;6.30;;;;;;;4.09;59.66;101060.38;1785529;79;20891;-41
2021/03/26 07:01:30;;;;;;;8.23;6.05;;;;;;;4.13;59.16;101055.75;1785530;80;21197;-42
2021/03/26 07:04:40;;;;;;;11.38;5.92;;;;;;;4.17;58.49;101059.69;1782337;79;20954;-43
2021/03/26 07:07:51;;;;;;;7.25;5.50;;;;;;;4.27;58.47;101055.99;1785522;80;21209;-42
2021/03/26 07:10:37;;;;;;;7.78;5.20;;;;;;;4.37;57.17;101057.89;1785424;79;21125;-42
2021/03/26 07:13:25;;;;;;;8.95;5.92;;;;;;;4.41;57.73;101054.94;1785502;80;21584;-42
2021/03/26 07:16:34;;;;;;;9.88;6.37;;;;;;;4.60;57.40;101058.25;1785498;79;21202;-43
2021/03/26 07:19:13;;;;;;;6.33;5.40;;;;;;;4.75;56.65;101058.91;1785482;80;20915;-42
2021/03/26 07:22:17;;;;;;;10.85;5.47;;;;;;;4.91;55.81;101061.72;1785154;80;20970;-43
2021/03/26 07:25:02;;;;;;;9.65;5.47;;;;;;;5.00;56.43;101062.27;1704038;79;84121;-43
2021/03/26 07:27:35;;;;;;;7.28;5.70;;;;;;;5.13;55.33;101061.59;1691456;83;21117;-42
2021/03/26 07:30:25;;;;;;;7.17;6.37;;;;;;;5.26;55.03;101059.20;1696884;84;21074;-43
2021/03/26 07:33:19;;;;;;;9.05;5.45;;;;;;;5.39;55.30;101062.35;1696567;84;21132;-43
2021/03/26 07:36:23;;;;;;;9.00;5.50;;;;;;;5.58;54.97;101054.88;1690033;84;21022;-43
2021/03/26 07:39:02;;;;;;;6.35;4.90;;;;;;;5.80;54.50;101056.41;1696658;84;21057;-43
2021/03/26 07:42:01;;;;;;;6.37;5.50;;;;;;;5.97;52.03;101052.73;1696818;83;21006;-42
2021/03/26 07:45:09;;;;;;;8.88;5.30;;;;;;;6.07;53.24;101056.30;1696611;83;21477;-43
2021/03/26 07:48:27;;;;;;;6.45;4.60;;;;;;;6.21;52.00;101052.57;1696634;84;21582;-43
2021/03/26 07:51:32;;;;;;;6.70;4.78;;;;;;;6.23;50.32;101050.46;1847602;76;22734;-43
2021/03/26 07:54:19;;;;;;;8.53;4.60;;;;;;;6.37;50.65;101058.70;1817798;78;20923;-40
2021/03/26 07:57:05;;;;;;;7.53;4.35;;;;;;;6.37;50.65;101058.70;1817839;79;21328;-42
2021/03/26 08:00:25;;;;;;;5.85;4.90;;;;;;;6.58;50.54;101058.04;1817909;79;21010;-40
2021/03/26 08:03:45;;;;;;;6.17;4.75;;;;;;;6.76;48.23;101055.58;1817132;79;20990;-42
2021/03/26 08:06:56;;;;;;;4.80;4.30;;;;;;;6.83;48.71;101056.49;1817761;79;21054;-43
2021/03/26 08:10:00;;;;;;;7.70;3.70;;;;;;;7.03;49.63;101062.20;1817739;79;20978;-43
2021/03/26 08:13:22;;;;;;;5.95;4.08;;;;;;;7.25;48.38;101054.15;1817807;79;21632;-44
2021/03/26 08:16:09;;;;;;;9.45;4.47;;;;;;;7.36;48.33;101055.94;1817684;78;20926;-44
2021/03/26 08:19:34;;;;;;;8.18;3.92;;;;;;;7.58;48.31;101059.45;1817822;78;20997;-42
2021/03/26 08:22:29;;;;;;;4.83;3.95;;;;;;;7.56;46.63;101054.27;1817731;79;20982;-44
2021/03/26 08:25:20;;;;;;;5.20;3.40;;;;;;;7.67;46.45;101058.18;1817742;79;21030;-43
2021/03/26 08:28:08;;;;;;;5.25;3.90;;;;;;;7.82;46.09;101056.07;1792392;79;21567;-43
2021/03/26 08:31:00;;;;;;;5.30;3.37;;;;;;;8.01;45.83;101059.58;1817598;78;20967;-43
2021/03/26 08:34:10;;;;;;;4.25;3.30;;;;;;;8.25;45.43;101055.31;1817771;79;20900;-43
2021/03/26 08:37:06;;;;;;;3.08;2.77;;;;;;;8.42;44.28;101057.89;1817753;79;20927;-44
2021/03/26 08:39:44;;;;;;;3.20;2.93;;;;;;;8.33;44.00;101048.42;1818087;79;21649;-43
2021/03/26 08:42:30;;;;;;;7.37;3.10;;;;;;;8.37;45.86;101058.33;1817787;77;21192;-43
2021/03/26 08:45:11;;;;;;;3.23;2.37;;;;;;;8.52;44.34;101061.78;1786456;79;21034;-42
2021/03/26 08:48:00;;;;;;;7.92;3.22;;;;;;;8.61;43.66;101063.94;1785557;79;20947;-43
2021/03/26 08:50:59;;;;;;;7.92;3.05;;;;;;;8.69;42.90;101060.06;1794488;79;21029;-43
2021/03/26 08:53:56;;;;;;;6.87;2.52;;;;;;;8.82;43.21;101058.74;1799944;78;20969;-43
2021/03/26 08:57:07;;;;;;;4.58;2.42;;;;;;;8.90;43.76;101061.75;1785067;79;21413;-42
2021/03/26 09:00:19;;;;;;;5.20;2.90;;;;;;;9.02;42.38;101060.02;1799883;78;21008;-43
2021/03/26 09:03:09;;;;;;;7.20;2.42;;;;;;;9.03;42.66;101053.54;1767875;81;21108;-44
2021/03/26 09:05:49;;;;;;;4.10;2.12;;;;;;;9.33;41.95;101056.89;1794639;78;21168;-43
2021/03/26 09:08:35;;;;;;;8.40;2.08;;;;;;;9.55;42.03;101062.42;1796219;78;21033;-45
2021/03/26 09:11:38;;;;;;;5.00;2.20;;;;;;;9.42;40.84;101064.20;1798916;79;22677;-45
2021/03/26 09:14:37;;;;;;;8.05;2.20;;;;;;;9.30;40.98;101069.82;1794752;79;21045;-45
2021/03/26 09:17:34;;;;;;;2.58;1.75;;;;;;;9.29;40.99;101071.13;1794982;79;20998;-43
2021/03/26 09:20:20;;;;;;;;;;;;;;;9.18;41.21;101062.97;1799431;79;20918;-43
2021/03/26 09:23:23;;;;;;;3.45;2.45;;;;;;;9.24;42.07;101067.71;1780096;79;20201;-43
2021/03/26 09:26:29;;;;;;;2.50;2.27;;;;;;;9.66;41.48;101056.75;1729388;82;21274;-44
2021/03/26 09:28:58;;;;;;;5.22;2.80;;;;;;;10.00;41.32;101058.30;1716352;82;21004;-43
2021/03/26 09:31:54;;;;;;;5.17;2.35;;;;;;;9.97;41.37;101059.16;1778426;79;21100;-44
2021/03/26 09:34:33;;;;;;;5.50;2.15;;;;;;;10.12;40.68;101065.11;1731310;82;28642;-45
2021/03/26 09:37:36;;;;;;;4.15;2.52;;;;;;;10.12;40.38;101065.11;1780071;80;21057;-45
2021/03/26 09:40:09;;;;;;;4.33;2.12;;;;;;;10.19;38.71;101059.02;1750685;81;21564;-42
2021/03/26 09:42:42;;;;;;;3.33;2.20;;;;;;;9.92;39.52;101062.21;1758817;80;21011;-43
2021/03/26 09:45:25;;;;;;;5.37;2.10;;;;;;;9.87;40.18;101061.39;1757444;81;21122;-43
2021/03/26 09:48:17;;;;;;;4.35;2.62;;;;;;;9.90;41.64;101063.53;1761746;81;21051;-43
2021/03/26 09:51:05;;;;;;;4.75;2.52;;;;;;;10.13;41.26;101061.23;1760490;79;21054;-42
2021/03/26 09:53:38;;;;;;;2.50;2.30;;;;;;;10.24;40.17;101063.75;1750727;81;22259;-43
2021/03/26 09:56:18;;;;;;;2.60;1.90;;;;;;;10.05;40.16;101068.17;1703992;84;21043;-43
2021/03/26 09:58:57;;;;;;;4.83;2.25;;;;;;;10.11;38.75;101060.39;1733352;82;21074;-43
2021/03/26 10:01:43;;;;;;;4.10;1.98;;;;;;;10.42;39.01;101052.84;1878077;76;22074;-44
2021/03/26 10:04:16;;;;;;;2.20;2.00;;;;;;;10.61;38.64;101066.06;1835818;77;20970;-43
2021/03/26 10:07:14;;;;;;;7.47;2.00;;;;;;;10.40;37.54;101064.52;1836596;77;21194;-43
2021/03/26 10:12:23;;;;;;;2.92;1.77;;;;;;;10.24;36.94;101060.29;1844884;77;21093;-43
2021/03/26 10:15:03;;;;;;;2.08;1.70;;;;;;;10.37;37.17;101061.93;1850441;77;21559;-44
2021/03/26 10:17:55;;;;;;;2.42;2.22;;;;;;;10.58;35.23;101054.86;1835959;77;21001;-44
2021/03/26 10:20:49;;;;;;;3.17;1.98;;;;;;;10.60;35.28;101063.47;1820535;77;21269;-41
2021/03/26 10:23:35;;;;;;;2.25;1.65;;;;;;;10.90;34.44;101056.31;1850179;77;20982;-44
2021/03/26 10:26:24;;;;;;;5.90;1.90;;;;;;;10.99;33.51;101048.43;1779020;80;20995;-43
2021/03/26 10:29:17;;;;;;;2.25;2.05;;;;;;;10.71;33.85;101062.95;1763248;80;21035;-43
2021/03/26 10:31:50;;;;;;;3.42;1.60;;;;;;;10.86;33.42;101054.17;1776554;80;21086;-42
2021/03/26 10:34:31;;;;;;;4.35;1.98;;;;;;;11.21;32.57;101053.38;1777749;80;21200;-43
2021/03/26 10:37:43;;;;;;;4.92;2.80;;;;;;;11.49;30.30;101051.74;1785994;79;21627;-43
2021/03/26 10:40:35;;;;;;;2.70;1.95;;;;;;;11.68;31.54;101040.69;1818316;77;21048;-43
2021/03/26 10:43:12;;;;;;;3.12;2.22;;;;;;;11.88;29.53;101046.91;1820334;77;21469;-43
2021/03/26 10:46:13;;;;;;;1.70;1.60;;;;;;;12.05;30.08;101038.91;1739899;82;21003;-45
2021/03/26 10:49:06;;;;;;;2.50;1.60;;;;;;;12.11;28.78;101018.92;1762439;81;21150;-43
2021/03/26 10:51:54;;;;;;;1.27;1.20;;;;;;;11.95;27.37;101047.65;1762002;81;21116;-43
2021/03/26 10:54:50;;;;;;;1.50;1.40;;;;;;;11.67;28.14;101043.31;1762723;81;21061;-43
2021/03/26 10:57:32;;;;;;;2.08;1.67;;;;;;;11.61;25.91;101034.72;1763092;81;21191;-45
2021/03/26 11:00:07;;;;;;;1.90;1.70;;;;;;;11.37;26.62;101033.31;1758399;81;21044;-42
2021/03/26 11:02:58;;;;;;;2.77;1.82;;;;;;;11.44;26.47;101040.58;1748293;82;21201;-42
2021/03/26 11:05:44;;;;;;;3.05;1.90;;;;;;;11.49;28.29;101035.77;1748118;82;21050;-46
2021/03/26 11:08:35;;;;;;;3.15;2.08;;;;;;;11.75;25.93;101025.48;1748355;82;20959;-44
2021/03/26 11:11:12;;;;;;;4.70;2.00;;;;;;;11.87;26.82;101041.73;1763059;81;21028;-43
2021/03/26 11:14:05;;;;;;;2.25;2.00;;;;;;;12.20;26.08;101040.82;1747774;81;21078;-45
2021/03/26 11:16:38;;;;;;;3.77;1.92;;;;;;;12.45;26.77;101041.30;1744056;82;21201;-44
2021/03/26 11:19:24;;;;;;;2.22;2.02;;;;;;;12.45;26.33;101036.53;1775714;80;21566;-44
2021/03/26 11:21:55;;;;;;;2.13;1.93;;;;;;;12.49;26.34;101035.58;1756244;80;21061;-44
2021/03/26 11:24:23;;;;;;;2.98;2.00;;;;;;;12.43;26.59;101033.98;1752882;81;21049;-44
2021/03/26 11:27:01;;;;;;;2.87;2.10;;;;;;;12.44;26.41;101036.11;1763489;81;21197;-44
2021/03/26 11:29:35;;;;;;;3.22;1.95;;;;;;;12.33;26.77;101028.08;1757972;81;21359;-42
2021/03/26 11:32:17;;;;;;;2.72;2.30;;;;;;;12.47;28.00;101030.86;1703566;83;20922;-43
2021/03/26 11:35:12;;;;;;;6.55;2.90;;;;;;;12.60;27.82;101024.59;1742338;82;21014;-43
2021/03/26 11:37:48;;;;;;;4.47;2.65;;;;;;;12.78;28.86;101025.98;1729610;81;20997;-43
2021/03/26 11:40:31;;;;;;;4.70;2.47;;;;;;;12.55;28.36;101029.44;1756881;81;21348;-42
2021/03/26 11:43:18;;;;;;;4.55;3.20;;;;;;;12.23;29.26;101033.44;1728304;83;21206;-42
2021/03/26 11:46:04;;;;;;;3.62;2.90;;;;;;;12.20;29.78;101018.34;1747105;82;20975;-44
2021/03/26 11:48:53;;;;;;;4.67;3.17;;;;;;;12.39;30.55;101024.95;1709442;83;21009;-43
2021/03/26 11:51:41;;;;;;;3.67;3.27;;;;;;;12.32;32.07;101022.90;1746124;82;21019;-43
2021/03/26 11:54:34;;;;;;;2.98;2.77;;;;;;;12.31;31.71;101027.67;1758058;81;20910;-42
2021/03/26 11:57:13;;;;;;;4.03;3.20;;;;;;;12.16;33.69;101024.89;1772524;81;21371;-43
2021/03/26 12:00:19;;;;;;;3.50;3.20;;;;;;;11.82;34.51;101021.48;1755360;81;20972;-43
2021/03/26 12:03:17;;;;;;;6.42;2.85;;;;;;;11.60;35.83;101021.33;1746297;81;21011;-44
2021/03/26 12:06:26;;;;;;;4.65;2.80;;;;;;;11.50;35.62;101016.74;1729662;81;21042;-43
2021/03/26 12:09:04;;;;;;;2.87;2.67;;;;;;;11.45;36.12;101014.62;1722553;81;21061;-44
2021/03/26 12:11:56;;;;;;;8.05;2.70;;;;;;;11.56;36.48;101011.89;1761937;81;21200;-44
2021/03/26 12:14:41;;;;;;;2.92;2.67;;;;;;;11.71;35.72;101015.16;1754669;81;20966;-43
2021/03/26 12:17:36;;;;;;;4.57;2.70;;;;;;;11.68;36.10;101012.16;1733527;81;21002;-44
2021/03/26 12:20:13;;;;;;;5.03;2.50;;;;;;;11.60;37.85;101014.02;1755051;81;21110;-43
2021/03/26 12:22:53;;;;;;;7.10;2.90;;;;;;;11.89;36.31;101012.30;1769210;81;20989;-44
2021/03/26 12:25:47;;;;;;;2.27;2.02;;;;;;;11.95;37.06;101010.03;1752227;81;21379;-44
2021/03/26 12:29:09;;;;;;;3.70;2.55;;;;;;;11.92;38.00;101006.20;1766779;79;22693;-44
2021/03/26 12:31:49;;;;;;;2.05;1.60;;;;;;;12.10;36.71;101005.53;1728327;82;21034;-44
2021/03/26 12:34:29;;;;;;;2.27;2.00;;;;;;;12.12;37.01;101010.25;1749294;82;21260;-43
2021/03/26 12:37:04;;;;;;;5.05;2.42;;;;;;;12.15;37.93;101009.77;1749289;82;21010;-43
2021/03/26 12:39:40;;;;;;;2.40;2.10;;;;;;;12.09;37.70;101011.14;1727166;81;21050;-43
2021/03/26 12:42:20;;;;;;;10.50;2.72;;;;;;;12.13;38.05;101005.48;1723375;82;20903;-43
2021/03/26 12:45:08;;;;;;;4.12;2.60;;;;;;;12.41;38.00;100998.52;1693933;83;20975;-43
2021/03/26 12:47:57;;;;;;;9.73;3.10;;;;;;;12.68;36.69;101000.20;1717897;82;21367;-46
2021/03/26 12:50:51;;;;;;;3.80;3.05;;;;;;;12.71;37.39;100998.84;1719411;83;20942;-42
2021/03/26 12:53:33;;;;;;;3.90;2.72;;;;;;;12.84;37.28;100998.17;1718924;83;21069;-42